Time;durP1;ratioP1;P1;durP2;ratioP2;P2;SDS_P1;SDS_P2;PMS_P1;PMS_P2;Temp;Humidity;BMP_temperature;BMP_pressure;BME280_temperature;BME280_humidity;BME280_pressure;Samples;Min_cycle;Max_cycle;Signal;HPM_P1;HPM_P2
2021/12/11 00:01:20;;;;;;;23.93;11.60;;;;;;;5.06;65.50;100196.31;4963069;28;97382;-89
2021/12/11 00:03:56;;;;;;;26.87;11.63;;;;;;;5.04;65.69;100196.03;4944251;28;97725;-88
2021/12/11 00:06:25;;;;;;;31.33;12.67;;;;;;;5.04;65.62;100201.50;4946044;28;98618;-88
2021/12/11 00:08:55;;;;;;;24.43;11.27;;;;;;;5.02;65.52;100196.47;4966075;28;97054;-88
2021/12/11 00:11:33;;;;;;;24.50;11.60;;;;;;;5.07;65.39;100192.38;4945253;28;96952;-89
2021/12/11 00:14:02;;;;;;;24.97;10.37;;;;;;;5.07;65.58;100200.53;4937852;28;99774;-87
2021/12/11 00:16:29;;;;;;;25.20;10.73;;;;;;;5.08;65.46;100221.91;4938759;28;97102;-87
2021/12/11 00:19:07;;;;;;;27.53;12.60;;;;;;;5.07;65.63;100223.13;4945934;28;96889;-88
2021/12/11 00:21:33;;;;;;;26.30;12.07;;;;;;;5.07;65.55;100234.03;4958963;28;97015;-88
2021/12/11 00:24:11;;;;;;;23.67;10.33;;;;;;;5.10;65.40;100226.88;4944405;28;98871;-88
2021/12/11 00:26:41;;;;;;;27.43;11.47;;;;;;;5.09;65.61;100223.41;4943086;28;96767;-88
2021/12/11 00:29:09;;;;;;;31.23;12.77;;;;;;;5.09;65.88;100228.09;4945182;28;96709;-88
2021/12/11 00:31:41;;;;;;;26.73;12.53;;;;;;;5.11;65.57;100229.13;4945261;28;96887;-88
2021/12/11 00:34:12;;;;;;;27.27;11.63;;;;;;;5.10;65.26;100245.97;4962573;28;99387;-88
2021/12/11 00:36:38;;;;;;;32.57;13.00;;;;;;;5.07;65.51;100235.97;4946092;28;99440;-87
2021/12/11 00:39:13;;;;;;;24.93;11.70;;;;;;;5.07;65.53;100230.53;4947480;28;97444;-88
2021/12/11 00:41:40;;;;;;;22.07;10.87;;;;;;;5.08;65.57;100238.25;4945529;28;96993;-88
2021/12/11 00:44:06;;;;;;;35.50;12.53;;;;;;;5.12;65.64;100251.72;4963856;28;97322;-89
2021/12/11 00:46:33;;;;;;;31.53;11.73;;;;;;;5.13;65.48;100264.88;4960789;28;96896;-88
2021/12/11 00:49:15;;;;;;;26.73;12.23;;;;;;;5.14;65.69;100271.84;4965063;28;97058;-88
2021/12/11 00:51:49;;;;;;;21.73;10.47;;;;;;;5.13;65.43;100259.41;4948701;28;96847;-88
2021/12/11 00:54:14;;;;;;;23.13;11.10;;;;;;;5.13;65.27;100255.97;4949046;28;100942;-88
2021/12/11 00:56:40;;;;;;;26.37;11.83;;;;;;;5.14;65.56;100280.03;4942209;28;97414;-88
2021/12/11 00:59:12;;;;;;;24.30;11.60;;;;;;;5.14;65.51;100276.53;4948245;28;98767;-87
2021/12/11 01:01:57;;;;;;;27.33;11.87;;;;;;;5.13;65.36;100281.22;4965295;28;96897;-88
2021/12/11 01:04:41;;;;;;;29.87;10.50;;;;;;;5.16;65.64;100276.81;4948771;28;103563;-88
2021/12/11 01:07:18;;;;;;;34.40;13.40;;;;;;;5.16;65.52;100276.81;4944259;28;102681;-88
2021/12/11 01:09:50;;;;;;;25.60;12.07;;;;;;;5.15;65.45;100273.38;4965711;28;97018;-88
2021/12/11 01:12:41;;;;;;;28.30;12.67;;;;;;;5.14;65.44;100284.72;4951065;28;96864;-88
2021/12/11 01:15:13;;;;;;;25.93;11.10;;;;;;;5.13;65.37;100288.69;4950546;28;103189;-89
2021/12/11 01:17:57;;;;;;;32.10;12.10;;;;;;;5.11;65.59;100291.13;4950946;28;98590;-88
2021/12/11 01:21:01;;;;;;;24.50;10.90;;;;;;;5.13;65.56;100291.41;4948933;28;96960;-88
2021/12/11 01:26:00;;;;;;;28.83;13.60;;;;;;;5.16;65.47;100304.09;4945304;28;96943;-88
2021/12/11 01:28:26;;;;;;;23.43;10.93;;;;;;;5.18;65.64;100304.38;4946808;28;96691;-88
2021/12/11 01:30:53;;;;;;;29.80;12.40;;;;;;;5.18;65.64;100350.72;4961937;28;97037;-89
2021/12/11 01:33:18;;;;;;;27.33;12.00;;;;;;;5.19;65.30;100319.53;4948625;28;96987;-88
2021/12/11 01:35:44;;;;;;;29.70;12.83;;;;;;;5.15;65.47;100355.16;4949870;28;96654;-88
2021/12/11 01:38:16;;;;;;;34.17;13.77;;;;;;;5.19;65.66;100331.22;4948578;28;97483;-88
2021/12/11 01:40:45;;;;;;;29.97;13.57;;;;;;;5.20;65.47;100353.75;4949169;28;96909;-88
2021/12/11 01:43:11;;;;;;;25.70;12.37;;;;;;;5.18;65.56;100348.00;4947159;28;96931;-88
2021/12/11 01:45:41;;;;;;;27.07;14.10;;;;;;;5.20;65.24;100357.25;4945087;28;97569;-89
2021/12/11 01:48:06;;;;;;;27.00;13.17;;;;;;;5.21;65.43;100358.00;4947206;28;98383;-88
2021/12/11 01:50:40;;;;;;;27.70;13.00;;;;;;;5.18;65.33;100367.09;4949323;28;97197;-88
2021/12/11 01:53:14;;;;;;;29.03;12.30;;;;;;;5.19;65.36;100363.94;4947313;28;96768;-88
2021/12/11 01:55:41;;;;;;;28.90;12.77;;;;;;;5.18;65.55;100372.53;4951218;28;101979;-88
2021/12/11 01:58:12;;;;;;;26.83;12.73;;;;;;;5.19;65.52;100374.06;4967687;28;101987;-88
2021/12/11 02:00:40;;;;;;;31.70;13.73;;;;;;;5.21;65.55;100368.91;4963477;28;97252;-88
2021/12/11 02:03:10;;;;;;;31.60;13.57;;;;;;;5.21;65.43;100379.81;4946528;28;96931;-88
2021/12/11 02:05:38;;;;;;;37.63;15.17;;;;;;;5.20;65.69;100383.75;4939964;28;97280;-88
2021/12/11 02:08:09;;;;;;;29.87;13.10;;;;;;;5.21;65.58;100379.81;4965690;28;97410;-88
2021/12/11 02:10:39;;;;;;;30.73;14.93;;;;;;;5.22;65.44;100384.81;4962993;28;96797;-88
2021/12/11 02:13:08;;;;;;;32.87;14.70;;;;;;;5.21;65.63;100394.22;4948560;28;97122;-88
2021/12/11 02:15:38;;;;;;;37.83;13.83;;;;;;;5.22;65.62;100395.69;4948588;28;97068;-87
2021/12/11 02:18:13;;;;;;;33.87;13.40;;;;;;;5.23;65.59;100391.78;4944419;28;98483;-87
2021/12/11 02:20:48;;;;;;;35.47;14.73;;;;;;;5.21;65.59;100407.09;4971092;28;97078;-87
2021/12/11 02:23:15;;;;;;;36.33;14.67;;;;;;;5.19;65.57;100404.81;4946204;28;96960;-88
2021/12/11 02:25:46;;;;;;;36.00;13.77;;;;;;;5.18;65.68;100419.66;4964156;28;97314;-88
2021/12/11 02:28:17;;;;;;;36.87;14.53;;;;;;;5.23;65.52;100410.09;4946432;28;99715;-88
2021/12/11 02:31:15;;;;;;;35.13;13.73;;;;;;;5.23;65.59;100419.03;4947011;28;96717;-88
2021/12/11 02:34:10;;;;;;;35.90;13.93;;;;;;;5.24;65.58;100422.53;4907145;28;97033;-88
2021/12/11 02:36:42;;;;;;;31.33;13.10;;;;;;;5.24;65.57;100426.00;4947157;28;102287;-88
2021/12/11 02:39:25;;;;;;;34.90;13.30;;;;;;;5.24;65.41;100434.19;4945762;28;97867;-88
2021/12/11 02:42:13;;;;;;;31.97;13.77;;;;;;;5.22;65.87;100424.97;4950248;28;96874;-88
2021/12/11 02:44:47;;;;;;;30.30;12.27;;;;;;;5.22;65.77;100433.16;4951525;28;96926;-88
2021/12/11 02:47:18;;;;;;;30.37;13.57;;;;;;;5.22;65.64;100430.41;4946233;28;98579;-88
2021/12/11 02:50:00;;;;;;;35.17;14.10;;;;;;;5.23;65.48;100442.81;4946569;28;97854;-88
2021/12/11 02:52:43;;;;;;;36.47;12.60;;;;;;;5.22;65.34;100452.97;4947225;28;97064;-88
2021/12/11 02:55:18;;;;;;;29.80;12.07;;;;;;;5.23;65.65;100449.03;4947140;28;96737;-88
2021/12/11 02:57:48;;;;;;;32.77;13.33;;;;;;;5.21;65.84;100456.16;4944730;28;99052;-88
2021/12/11 03:00:20;;;;;;;34.80;14.63;;;;;;;5.23;65.53;100449.03;4950203;28;96822;-89
2021/12/11 03:02:50;;;;;;;33.40;13.27;;;;;;;5.23;65.83;100457.22;4959951;28;97025;-89
2021/12/11 03:05:20;;;;;;;35.77;13.07;;;;;;;5.21;65.38;100480.72;4948815;28;97228;-89
2021/12/11 03:07:50;;;;;;;37.30;12.90;;;;;;;5.22;65.71;100474.06;4949518;28;100005;-88
2021/12/11 03:10:19;;;;;;;29.07;12.40;;;;;;;5.22;65.78;100482.22;4947391;28;100132;-88
2021/12/11 03:12:45;;;;;;;34.10;11.60;;;;;;;5.21;65.85;100480.72;4947902;28;97039;-89
2021/12/11 03:15:13;;;;;;;30.67;12.83;;;;;;;5.21;65.73;100472.53;4958125;28;97073;-88
2021/12/11 03:17:39;;;;;;;36.30;13.17;;;;;;;5.22;65.59;100476.78;4946904;28;99650;-89
2021/12/11 03:20:08;;;;;;;32.00;12.80;;;;;;;5.18;65.86;100481.63;4948445;28;97316;-88
2021/12/11 03:22:35;;;;;;;32.57;12.90;;;;;;;5.22;65.67;100482.22;4946231;28;96853;-88
2021/12/11 03:25:07;;;;;;;36.33;13.60;;;;;;;5.22;65.39;100504.06;4947147;28;97100;-88
2021/12/11 03:27:33;;;;;;;45.17;12.90;;;;;;;5.21;65.60;100492.38;4943892;28;97018;-89
2021/12/11 03:29:58;;;;;;;41.03;13.77;;;;;;;5.19;65.60;100499.50;4946715;28;98112;-88
2021/12/11 03:32:24;;;;;;;35.10;14.10;;;;;;;5.16;65.71;100494.94;4944769;28;96927;-88
2021/12/11 03:34:50;;;;;;;34.57;13.07;;;;;;;5.14;65.50;100492.69;4948274;28;97068;-89
2021/12/11 03:37:19;;;;;;;33.47;13.20;;;;;;;5.16;65.79;100519.50;4945680;28;97036;-87
2021/12/11 03:39:48;;;;;;;27.77;12.30;;;;;;;5.18;65.63;100520.56;4947046;28;97024;-88
2021/12/11 03:42:21;;;;;;;31.50;12.70;;;;;;;5.19;65.35;100510.41;4946917;28;97072;-89
2021/12/11 03:44:47;;;;;;;34.93;13.93;;;;;;;5.16;66.14;100522.97;4947870;28;97074;-88
2021/12/11 03:47:23;;;;;;;35.23;13.87;;;;;;;5.20;65.59;100528.25;4948527;28;96911;-89
2021/12/11 03:49:49;;;;;;;30.20;13.20;;;;;;;5.20;65.89;100514.63;4959497;28;100870;-89
2021/12/11 03:52:15;;;;;;;45.83;14.87;;;;;;;5.20;65.62;100522.81;4945668;28;96832;-89
2021/12/11 03:54:43;;;;;;;28.70;12.50;;;;;;;5.18;65.85;100525.25;4948448;28;96953;-88
2021/12/11 03:57:12;;;;;;;36.43;13.77;;;;;;;5.22;65.60;100537.50;4948214;28;99895;-88
2021/12/11 03:59:37;;;;;;;35.40;13.47;;;;;;;5.22;65.66;100534.78;4942755;28;97913;-89
2021/12/11 04:02:10;;;;;;;34.53;13.20;;;;;;;5.23;65.41;100539.03;4943189;28;96805;-89
2021/12/11 04:04:42;;;;;;;39.40;15.23;;;;;;;5.20;65.65;100545.38;4946323;28;97128;-90
2021/12/11 04:07:11;;;;;;;36.87;14.67;;;;;;;5.20;65.54;100561.75;4947334;28;98738;-89
2021/12/11 04:09:37;;;;;;;30.40;14.10;;;;;;;5.16;65.59;100544.78;4964770;28;98246;-89
2021/12/11 04:12:06;;;;;;;31.00;13.50;;;;;;;5.20;65.51;100552.81;4956101;28;97000;-88
2021/12/11 04:14:37;;;;;;;35.47;13.93;;;;;;;5.20;65.62;100558.25;4946323;28;96976;-89
2021/12/11 04:17:06;;;;;;;35.13;14.40;;;;;;;5.16;65.73;100552.97;4945867;28;97216;-88
2021/12/11 04:19:32;;;;;;;35.97;13.33;;;;;;;5.15;65.66;100559.66;4963565;28;96755;-88
2021/12/11 04:21:58;;;;;;;36.53;13.87;;;;;;;5.14;65.85;100565.56;4947737;28;96936;-88
2021/12/11 04:24:26;;;;;;;34.50;14.30;;;;;;;5.15;65.93;100575.25;4966412;28;97013;-89
2021/12/11 04:26:54;;;;;;;35.07;13.70;;;;;;;5.10;65.94;100573.13;4970049;28;97014;-88
2021/12/11 04:29:20;;;;;;;30.97;11.97;;;;;;;5.15;65.72;100588.88;4953254;28;100260;-88
2021/12/11 04:31:47;;;;;;;26.63;11.80;;;;;;;5.17;65.85;100594.66;4953457;28;97024;-88
2021/12/11 04:34:15;;;;;;;35.33;13.33;;;;;;;5.18;65.59;100588.72;4950508;28;97343;-89
2021/12/11 04:36:44;;;;;;;29.70;12.90;;;;;;;5.17;65.58;100606.31;4969715;28;97128;-88
2021/12/11 04:39:13;;;;;;;29.57;12.57;;;;;;;5.18;65.72;100596.91;4949840;28;96730;-89
2021/12/11 04:41:50;;;;;;;31.73;12.23;;;;;;;5.17;65.67;100616.47;4951640;28;97285;-88
2021/12/11 04:44:22;;;;;;;29.03;11.90;;;;;;;5.20;65.82;100604.63;4949071;28;96856;-88
2021/12/11 04:46:49;;;;;;;31.03;13.33;;;;;;;5.18;65.63;100604.31;4965355;28;97032;-87
2021/12/11 04:49:25;;;;;;;37.13;14.00;;;;;;;5.18;65.71;100629.63;4947179;28;98928;-88
2021/12/11 04:52:18;;;;;;;33.13;13.57;;;;;;;5.20;65.68;100635.38;4948259;28;97032;-88
2021/12/11 04:55:00;;;;;;;34.63;13.40;;;;;;;5.21;65.74;100627.97;4948508;28;96894;-89
2021/12/11 05:00:19;;;;;;;31.57;12.47;;;;;;;5.14;65.83;100625.53;4950809;28;97286;-89
2021/12/11 05:13:27;;;;;;;35.13;13.27;;;;;;;5.13;65.99;100654.78;4940768;28;96780;-89
2021/12/11 05:15:56;;;;;;;33.53;14.63;;;;;;;5.17;65.76;100651.91;4954320;28;96820;-88
2021/12/11 05:18:25;;;;;;;31.07;13.70;;;;;;;5.16;65.85;100667.50;4947716;28;96929;-87
2021/12/11 05:20:55;;;;;;;31.90;12.37;;;;;;;5.16;65.80;100681.13;4946253;28;97048;-89
2021/12/11 05:23:21;;;;;;;30.87;13.23;;;;;;;5.14;65.74;100672.66;4949040;28;96701;-89
2021/12/11 05:25:47;;;;;;;40.10;14.70;;;;;;;5.15;65.85;100676.91;4950458;28;96974;-89
2021/12/11 05:28:14;;;;;;;32.50;13.80;;;;;;;5.15;66.00;100684.31;4951621;28;96807;-89
2021/12/11 05:30:44;;;;;;;32.57;13.30;;;;;;;5.14;65.82;100688.25;4949778;28;96780;-91
2021/12/11 05:33:09;;;;;;;30.27;14.40;;;;;;;5.13;65.91;100703.13;4952247;28;96903;-90
2021/12/11 05:35:38;;;;;;;35.20;13.60;;;;;;;5.10;65.76;100688.41;4951502;28;96819;-88
2021/12/11 05:38:06;;;;;;;34.37;13.97;;;;;;;5.14;66.13;100693.72;4951470;28;98641;-89
2021/12/11 05:40:33;;;;;;;31.50;12.70;;;;;;;5.12;65.92;100699.63;4967996;28;99409;-88
2021/12/11 05:42:59;;;;;;;33.03;13.73;;;;;;;5.12;65.60;100694.16;4961682;28;96773;-88
2021/12/11 05:45:24;;;;;;;31.80;13.47;;;;;;;5.12;65.76;100691.44;4965910;28;97499;-88
2021/12/11 05:47:50;;;;;;;31.27;12.57;;;;;;;5.16;66.16;100697.50;4961567;28;96986;-88
2021/12/11 05:50:25;;;;;;;37.40;14.50;;;;;;;5.18;65.80;100705.97;4970794;28;96968;-88
2021/12/11 05:52:51;;;;;;;31.27;12.80;;;;;;;5.16;65.65;100724.00;4947414;28;97194;-90
2021/12/11 05:55:19;;;;;;;37.90;14.80;;;;;;;5.12;65.76;100710.53;4947900;28;97239;-89
2021/12/11 05:57:52;;;;;;;38.03;14.80;;;;;;;5.12;65.94;100712.50;4966124;28;97511;-89
2021/12/11 06:00:23;;;;;;;37.40;14.00;;;;;;;5.13;66.15;100714.75;4950329;28;98440;-87
2021/12/11 06:02:49;;;;;;;25.97;12.63;;;;;;;5.13;65.92;100714.03;4948308;28;97024;-88
2021/12/11 06:05:14;;;;;;;28.53;12.27;;;;;;;5.10;65.72;100737.50;4950818;28;96826;-88
2021/12/11 06:07:43;;;;;;;35.80;14.93;;;;;;;5.03;65.86;100713.25;4949593;28;98603;-88
2021/12/11 06:10:12;;;;;;;37.80;14.13;;;;;;;5.06;65.92;100717.81;4962299;28;97039;-89
2021/12/11 06:12:38;;;;;;;31.93;12.27;;;;;;;5.04;65.76;100730.38;4967530;28;97192;-88
2021/12/11 06:15:04;;;;;;;32.07;13.13;;;;;;;5.03;65.79;100740.50;4948305;28;96779;-88
2021/12/11 06:17:32;;;;;;;27.13;12.27;;;;;;;5.02;66.07;100744.41;4949498;28;97625;-89
2021/12/11 06:19:58;;;;;;;27.37;12.23;;;;;;;5.03;66.08;100753.38;4965354;28;97110;-89
2021/12/11 06:22:30;;;;;;;31.20;11.60;;;;;;;5.02;66.00;100758.06;4951303;28;96926;-88
2021/12/11 06:24:57;;;;;;;30.70;12.80;;;;;;;5.03;65.79;100765.03;4947539;28;97075;-88
2021/12/11 06:27:25;;;;;;;32.93;13.20;;;;;;;5.00;65.79;100774.09;4949558;28;97135;-89
2021/12/11 06:29:51;;;;;;;26.60;12.80;;;;;;;4.97;66.03;100777.75;4948921;28;96883;-88
2021/12/11 06:32:16;;;;;;;30.40;12.90;;;;;;;4.96;65.75;100789.09;4963413;28;97479;-90
2021/12/11 06:34:42;;;;;;;31.90;13.60;;;;;;;4.96;66.24;100802.72;4950159;28;96975;-88
2021/12/11 06:37:10;;;;;;;30.50;13.23;;;;;;;4.95;65.96;100782.13;4947683;28;97191;-88
2021/12/11 06:39:36;;;;;;;26.27;12.30;;;;;;;5.00;66.06;100784.28;4947392;28;96985;-89
2021/12/11 06:42:06;;;;;;;29.97;13.30;;;;;;;5.02;65.99;100779.13;4950491;28;96850;-88
2021/12/11 06:44:33;;;;;;;30.17;11.83;;;;;;;5.01;65.89;100794.72;4964175;28;96990;-89
2021/12/11 06:47:00;;;;;;;26.70;11.10;;;;;;;5.02;65.73;100811.84;4948491;28;98065;-89
2021/12/11 06:49:29;;;;;;;27.20;12.30;;;;;;;5.02;65.71;100788.03;4948752;28;97455;-88
2021/12/11 06:51:55;;;;;;;28.57;12.60;;;;;;;5.00;65.95;100784.28;4949944;28;97093;-88
2021/12/11 06:54:20;;;;;;;26.23;12.47;;;;;;;5.00;65.79;100789.72;4947905;28;97359;-88
2021/12/11 06:56:46;;;;;;;30.50;12.93;;;;;;;4.97;66.00;100787.91;4948695;28;97623;-89
2021/12/11 06:59:12;;;;;;;31.17;12.80;;;;;;;4.94;66.06;100814.06;4947165;28;96948;-88
2021/12/11 07:01:38;;;;;;;22.83;11.37;;;;;;;4.91;66.01;100811.50;4946826;28;96971;-89
2021/12/11 07:04:07;;;;;;;20.50;10.40;;;;;;;4.90;65.89;100821.63;4950567;28;97024;-89
2021/12/11 07:06:34;;;;;;;30.87;12.43;;;;;;;4.87;66.18;100827.25;4963826;28;96949;-91
2021/12/11 07:09:02;;;;;;;25.73;12.17;;;;;;;4.83;66.03;100829.31;4951132;28;98166;-88
2021/12/11 07:11:28;;;;;;;26.63;11.83;;;;;;;4.79;66.08;100850.50;4946111;28;97045;-88
2021/12/11 07:13:53;;;;;;;25.83;10.70;;;;;;;4.81;66.26;100851.59;4948378;28;96799;-88
2021/12/11 07:16:19;;;;;;;30.93;11.07;;;;;;;4.85;66.13;100840.56;4951090;28;97286;-89
2021/12/11 07:18:45;;;;;;;24.70;11.77;;;;;;;4.85;66.02;100884.16;4962827;28;96637;-88
2021/12/11 07:21:11;;;;;;;26.90;12.60;;;;;;;4.86;65.96;100866.59;4947179;28;97328;-88
2021/12/11 07:23:37;;;;;;;24.53;11.17;;;;;;;4.88;66.20;100875.84;4946733;28;97571;-88
2021/12/11 07:26:12;;;;;;;28.10;11.50;;;;;;;4.90;65.92;100895.25;4948959;28;100121;-88
2021/12/11 07:28:40;;;;;;;21.63;11.17;;;;;;;4.89;65.92;100896.44;4947169;28;97366;-88
2021/12/11 07:31:05;;;;;;;29.10;12.07;;;;;;;4.91;66.08;100904.19;4947262;28;96907;-89
2021/12/11 07:33:30;;;;;;;29.77;12.87;;;;;;;4.91;66.10;100915.09;4949917;28;97409;-88
2021/12/11 07:35:56;;;;;;;28.67;12.40;;;;;;;4.87;65.73;100947.91;4945503;28;96842;-88
2021/12/11 07:38:22;;;;;;;28.03;12.03;;;;;;;4.87;66.00;100917.19;4947310;28;98095;-88
2021/12/11 07:40:54;;;;;;;24.03;11.13;;;;;;;4.86;65.92;100923.84;4947223;28;96992;-89
2021/12/11 07:43:22;;;;;;;25.00;12.07;;;;;;;4.82;66.17;100958.63;4946616;28;97001;-89
2021/12/11 07:45:48;;;;;;;22.23;10.93;;;;;;;4.84;66.23;100939.88;4946934;28;98634;-87
2021/12/11 07:48:13;;;;;;;24.77;10.73;;;;;;;4.84;66.00;100935.19;4948620;28;99448;-89
2021/12/11 07:50:40;;;;;;;27.53;12.13;;;;;;;4.80;66.13;100947.44;4947551;28;96847;-90
2021/12/11 07:53:06;;;;;;;24.00;11.43;;;;;;;4.77;66.20;100945.56;4945263;28;97312;-90
2021/12/11 07:55:32;;;;;;;23.60;11.97;;;;;;;4.79;66.16;100962.25;4949893;28;97905;-89
2021/12/11 07:57:59;;;;;;;22.00;11.20;;;;;;;4.78;65.92;100953.34;4945377;28;97891;-87
2021/12/11 08:00:27;;;;;;;28.40;11.50;;;;;;;4.79;66.15;100960.28;4948149;28;97089;-89
2021/12/11 08:02:53;;;;;;;22.13;10.47;;;;;;;4.76;66.10;100984.94;4962856;28;97260;-88
2021/12/11 08:05:19;;;;;;;17.40;9.27;;;;;;;4.80;66.20;100974.69;4947172;28;100088;-89
2021/12/11 08:07:46;;;;;;;23.20;10.40;;;;;;;4.81;66.24;100989.81;4969805;28;97975;-90
2021/12/11 08:10:16;;;;;;;32.40;10.87;;;;;;;4.78;65.95;100983.31;4947273;28;97081;-88
2021/12/11 08:12:42;;;;;;;22.23;11.23;;;;;;;4.79;65.91;100984.06;4966509;28;96900;-89
2021/12/11 08:15:10;;;;;;;22.27;10.87;;;;;;;4.78;65.84;100990.72;4967549;28;100026;-89
2021/12/11 08:17:36;;;;;;;34.27;11.47;;;;;;;4.79;66.08;100984.06;4943176;28;96835;-89
2021/12/11 08:20:07;;;;;;;23.87;10.63;;;;;;;4.81;65.93;100981.63;4948598;28;97309;-88
2021/12/11 08:22:33;;;;;;;28.20;11.80;;;;;;;4.78;65.99;100982.53;4945431;28;97388;-89
2021/12/11 08:24:58;;;;;;;23.63;11.90;;;;;;;4.82;65.87;100992.13;4949700;28;97939;-89
2021/12/11 08:27:24;;;;;;;22.90;10.60;;;;;;;4.82;66.17;101004.97;4947531;28;99148;-87
2021/12/11 08:29:52;;;;;;;27.33;10.80;;;;;;;4.85;65.93;101031.34;4948161;28;96979;-88
2021/12/11 08:32:20;;;;;;;21.87;10.97;;;;;;;4.86;66.16;101000.16;4964441;28;96971;-89
2021/12/11 08:34:47;;;;;;;26.23;11.57;;;;;;;4.86;65.97;101009.09;4947510;28;97767;-89
2021/12/11 08:37:16;;;;;;;26.60;11.47;;;;;;;4.86;66.13;101005.59;4946663;28;97165;-90
2021/12/11 08:39:43;;;;;;;26.63;11.70;;;;;;;4.84;66.14;101010.75;4963841;28;97113;-88
2021/12/11 08:42:13;;;;;;;26.60;10.67;;;;;;;4.85;65.95;101015.00;4944922;28;102615;-88
2021/12/11 08:44:48;;;;;;;24.53;10.43;;;;;;;4.86;66.07;101022.72;4946853;28;100219;-89
2021/12/11 08:47:14;;;;;;;25.20;10.63;;;;;;;4.83;66.29;101025.56;4967925;28;98419;-90
2021/12/11 08:49:42;;;;;;;19.20;10.57;;;;;;;4.82;66.19;101015.88;4948891;28;96631;-89
2021/12/11 08:52:17;;;;;;;22.27;10.07;;;;;;;4.81;66.06;101022.53;4948676;28;98088;-89
2021/12/11 08:54:42;;;;;;;22.10;11.10;;;;;;;4.83;66.00;101036.47;4972992;28;103023;-89
2021/12/11 08:57:13;;;;;;;23.70;11.43;;;;;;;4.84;66.02;101024.38;4949840;28;100093;-88
2021/12/11 08:59:43;;;;;;;23.13;10.73;;;;;;;4.85;66.18;101034.81;4963892;28;97898;-89
2021/12/11 09:02:17;;;;;;;24.07;10.10;;;;;;;4.88;66.28;101038.63;4948964;28;97283;-89
2021/12/11 09:04:53;;;;;;;21.27;10.67;;;;;;;4.87;66.16;101048.75;4945400;28;99166;-88
2021/12/11 09:07:33;;;;;;;24.77;10.47;;;;;;;4.90;66.16;101047.88;4941908;28;98429;-89
2021/12/11 09:10:04;;;;;;;28.90;9.83;;;;;;;4.95;66.16;101052.00;4946359;28;96878;-88
2021/12/11 09:12:38;;;;;;;28.77;10.00;;;;;;;4.98;66.06;101064.78;4963394;28;96871;-89
2021/12/11 09:15:07;;;;;;;21.83;10.20;;;;;;;4.96;65.81;101058.97;4947867;28;100613;-88
2021/12/11 09:17:47;;;;;;;19.43;9.53;;;;;;;4.98;66.12;101067.50;4948346;28;101584;-88
2021/12/11 09:20:23;;;;;;;21.03;9.70;;;;;;;5.01;66.22;101074.78;4950113;28;96800;-90
2021/12/11 09:23:06;;;;;;;22.50;10.53;;;;;;;4.94;65.88;101072.28;4946253;28;96795;-89
2021/12/11 09:25:55;;;;;;;35.83;11.17;;;;;;;5.01;65.94;101078.28;4946544;28;99330;-89
2021/12/11 09:28:24;;;;;;;19.20;10.23;;;;;;;5.04;66.24;101098.44;4966863;28;100675;-89
2021/12/11 09:31:13;;;;;;;29.23;10.97;;;;;;;5.01;65.88;101110.22;4969482;28;97177;-89
2021/12/11 09:33:57;;;;;;;23.10;10.43;;;;;;;5.00;65.94;101095.06;4951616;28;96911;-90
2021/12/11 09:36:30;;;;;;;23.80;10.37;;;;;;;4.99;66.19;101115.34;4951594;28;100916;-90
2021/12/11 09:39:04;;;;;;;21.73;11.30;;;;;;;5.02;66.27;101106.31;4954656;28;97480;-90
2021/12/11 09:41:30;;;;;;;24.93;9.50;;;;;;;5.03;66.19;101102.34;4976379;28;97242;-89
2021/12/11 09:44:16;;;;;;;24.23;10.77;;;;;;;5.06;65.77;101121.34;4971715;28;97041;-89
2021/12/11 09:46:49;;;;;;;26.17;10.30;;;;;;;5.09;66.07;101120.44;4947449;28;100848;-89
2021/12/11 09:49:21;;;;;;;22.00;11.10;;;;;;;5.13;65.97;101128.50;4971263;28;99846;-88
2021/12/11 09:51:49;;;;;;;20.30;10.57;;;;;;;5.14;66.11;101116.38;4944234;28;97182;-88
2021/12/11 09:54:21;;;;;;;21.87;11.23;;;;;;;5.17;65.60;101142.78;4950546;28;97207;-89
2021/12/11 09:56:59;;;;;;;21.97;11.23;;;;;;;5.23;66.38;101124.63;4951963;28;98729;-89
2021/12/11 09:59:27;;;;;;;30.63;12.03;;;;;;;5.20;65.84;101137.19;4952820;28;97394;-90
2021/12/11 10:01:58;;;;;;;21.23;11.40;;;;;;;5.18;66.11;101128.69;4951455;28;97457;-89
2021/12/11 10:04:32;;;;;;;25.63;11.80;;;;;;;5.21;66.22;101127.03;4951819;28;96860;-90
2021/12/11 10:09:37;;;;;;;22.77;11.97;;;;;;;5.28;65.87;101141.22;4952697;28;97118;-89
2021/12/11 10:12:13;;;;;;;21.60;11.07;;;;;;;5.31;66.15;101136.81;4949850;28;97230;-89
2021/12/11 10:15:08;;;;;;;22.67;11.30;;;;;;;5.38;66.25;101139.28;4951189;28;97273;-88
2021/12/11 10:17:40;;;;;;;31.73;13.27;;;;;;;5.36;66.25;101147.16;4944223;28;102264;-89
2021/12/11 10:20:16;;;;;;;25.87;12.07;;;;;;;5.36;66.08;101149.88;4968110;28;98320;-90
2021/12/11 10:22:43;;;;;;;21.60;10.37;;;;;;;5.36;65.90;101141.69;4948641;28;97119;-89
2021/12/11 10:25:16;;;;;;;24.77;12.57;;;;;;;5.36;66.38;101138.19;4947857;28;97154;-88
2021/12/11 10:27:43;;;;;;;20.77;10.97;;;;;;;5.41;66.36;101149.31;4949257;28;97656;-90
2021/12/11 10:30:13;;;;;;;25.60;13.10;;;;;;;5.40;65.81;101150.50;4948462;28;97969;-93
2021/12/11 10:32:39;;;;;;;28.70;13.63;;;;;;;5.35;66.26;101161.25;4949718;28;97133;-90
2021/12/11 10:35:14;;;;;;;22.03;12.17;;;;;;;5.37;65.98;101158.84;4951526;28;96954;-89
2021/12/11 10:37:40;;;;;;;26.67;14.00;;;;;;;5.36;66.25;101170.94;4947094;28;103589;-89
2021/12/11 10:40:15;;;;;;;27.57;12.40;;;;;;;5.41;66.44;101173.88;4948351;28;96977;-90
2021/12/11 10:42:44;;;;;;;23.93;11.20;;;;;;;5.51;66.26;101159.09;4947872;28;97133;-90
2021/12/11 10:45:12;;;;;;;27.83;12.73;;;;;;;5.63;66.08;101176.59;4949344;28;97168;-89
2021/12/11 10:47:42;;;;;;;22.47;11.53;;;;;;;5.67;66.13;101145.25;4948764;28;98005;-90
2021/12/11 10:50:15;;;;;;;21.67;11.70;;;;;;;5.81;66.21;101163.06;4944615;28;96971;-89
2021/12/11 10:52:41;;;;;;;21.70;11.10;;;;;;;5.81;66.23;101169.28;4947583;28;96865;-89
2021/12/11 10:55:11;;;;;;;23.23;12.40;;;;;;;5.85;65.99;101171.91;4954081;28;97052;-89
2021/12/11 10:57:37;;;;;;;24.30;12.80;;;;;;;5.84;65.71;101165.69;4955591;28;98091;-89
2021/12/11 11:00:12;;;;;;;19.33;12.20;;;;;;;5.81;65.89;101174.72;4956488;28;96537;-89
2021/12/11 11:02:37;;;;;;;21.60;10.50;;;;;;;5.80;66.12;101213.41;4954978;28;96850;-89
2021/12/11 11:05:14;;;;;;;24.80;13.33;;;;;;;5.85;66.11;101189.03;4956252;28;96981;-89
2021/12/11 11:07:42;;;;;;;26.43;13.27;;;;;;;5.95;66.17;101187.91;4955560;28;103876;-89
2021/12/11 11:10:12;;;;;;;25.77;13.20;;;;;;;5.97;65.94;101199.13;4954107;28;100584;-89
2021/12/11 11:12:38;;;;;;;20.67;13.17;;;;;;;6.02;66.07;101198.56;4952374;28;96586;-89
2021/12/11 11:15:05;;;;;;;25.63;12.50;;;;;;;6.02;66.00;101209.50;4952051;28;96658;-89
2021/12/11 11:17:33;;;;;;;23.80;12.23;;;;;;;6.06;65.73;101209.34;4952070;28;96787;-89
2021/12/11 11:19:59;;;;;;;23.70;13.10;;;;;;;6.18;66.07;101188.63;4951899;28;97881;-89
2021/12/11 11:22:29;;;;;;;26.50;13.10;;;;;;;6.34;65.99;101191.88;4952946;28;96807;-91
2021/12/11 11:25:00;;;;;;;22.50;13.10;;;;;;;6.47;65.59;101202.69;4953061;28;97164;-88
2021/12/11 11:27:25;;;;;;;24.23;12.53;;;;;;;6.59;66.14;101199.88;4951434;28;101756;-89
2021/12/11 11:29:51;;;;;;;22.90;12.17;;;;;;;6.66;65.77;101196.09;4967562;28;96886;-89
2021/12/11 11:32:31;;;;;;;21.80;12.57;;;;;;;6.68;65.52;101201.88;4949703;28;96987;-90
2021/12/11 11:35:02;;;;;;;21.03;12.07;;;;;;;6.73;65.15;101207.50;4950614;28;96859;-88
2021/12/11 11:37:28;;;;;;;24.87;12.17;;;;;;;6.79;65.85;101204.94;4967377;28;97656;-88
2021/12/11 11:39:54;;;;;;;25.17;12.10;;;;;;;6.84;65.78;101207.06;4966939;28;97070;-89
2021/12/11 11:42:20;;;;;;;22.30;13.03;;;;;;;6.92;65.46;101219.25;4950035;28;96860;-89
2021/12/11 11:44:48;;;;;;;18.77;11.07;;;;;;;6.98;65.47;101211.94;4950116;28;96870;-89
2021/12/11 11:47:15;;;;;;;19.87;12.10;;;;;;;7.00;65.49;101214.22;4966522;28;97878;-89
2021/12/11 11:49:42;;;;;;;23.77;12.87;;;;;;;7.09;65.45;101217.75;4950288;28;97705;-89